sensor_id;sensor_type;location;lat;lon;timestamp;pressure;altitude;pressure_sealevel;temperature;humidity
62655;BME280;48717;55.556;37.816;2023-03-04T00:00:07;97772.09;;;-4.46;100.00
62655;BME280;48717;55.556;37.816;2023-03-04T00:02:37;97751.19;;;-4.58;100.00
62655;BME280;48717;55.556;37.816;2023-03-04T00:05:05;97773.94;;;-4.41;100.00
62655;BME280;48717;55.556;37.816;2023-03-04T00:07:32;97778.19;;;-4.42;100.00
62655;BME280;48717;55.556;37.816;2023-03-04T00:09:59;97763.47;;;-4.48;100.00
62655;BME280;48717;55.556;37.816;2023-03-04T00:12:28;97763.53;;;-4.44;100.00
62655;BME280;48717;55.556;37.816;2023-03-04T00:14:55;97746.38;;;-4.44;100.00
62655;BME280;48717;55.556;37.816;2023-03-04T00:17:22;97749.84;;;-4.43;100.00
62655;BME280;48717;55.556;37.816;2023-03-04T00:19:50;97742.22;;;-4.40;100.00
62655;BME280;48717;55.556;37.816;2023-03-04T00:22:17;97736.00;;;-4.49;100.00
62655;BME280;48717;55.556;37.816;2023-03-04T00:24:44;97725.78;;;-4.46;100.00
62655;BME280;48717;55.556;37.816;2023-03-04T00:27:11;97744.78;;;-4.40;100.00
62655;BME280;48717;55.556;37.816;2023-03-04T00:29:38;97741.50;;;-4.35;100.00
62655;BME280;48717;55.556;37.816;2023-03-04T00:32:05;97729.34;;;-4.40;100.00
62655;BME280;48717;55.556;37.816;2023-03-04T00:34:32;97731.06;;;-4.39;100.00
62655;BME280;48717;55.556;37.816;2023-03-04T00:36:59;97702.44;;;-4.53;100.00
62655;BME280;48717;55.556;37.816;2023-03-04T00:39:27;97724.03;;;-4.47;100.00
62655;BME280;48717;55.556;37.816;2023-03-04T00:41:55;97703.31;;;-4.53;100.00
62655;BME280;48717;55.556;37.816;2023-03-04T00:44:22;97724.19;;;-4.40;100.00
62655;BME280;48717;55.556;37.816;2023-03-04T00:46:49;97700.69;;;-4.54;100.00
62655;BME280;48717;55.556;37.816;2023-03-04T00:49:16;97717.06;;;-4.51;100.00
62655;BME280;48717;55.556;37.816;2023-03-04T00:51:43;97685.84;;;-4.66;100.00
62655;BME280;48717;55.556;37.816;2023-03-04T00:54:10;97727.34;;;-4.51;100.00
62655;BME280;48717;55.556;37.816;2023-03-04T00:56:37;97694.44;;;-4.64;100.00
62655;BME280;48717;55.556;37.816;2023-03-04T00:59:05;97714.25;;;-4.60;100.00
62655;BME280;48717;55.556;37.816;2023-03-04T01:01:32;97694.16;;;-4.77;100.00
62655;BME280;48717;55.556;37.816;2023-03-04T01:03:59;97720.00;;;-4.70;100.00
62655;BME280;48717;55.556;37.816;2023-03-04T01:06:26;97713.03;;;-4.75;100.00
62655;BME280;48717;55.556;37.816;2023-03-04T01:08:53;97716.56;;;-4.71;100.00
62655;BME280;48717;55.556;37.816;2023-03-04T01:11:20;97720.81;;;-4.73;100.00
62655;BME280;48717;55.556;37.816;2023-03-04T01:13:47;97712.97;;;-4.78;100.00
62655;BME280;48717;55.556;37.816;2023-03-04T01:16:14;97713.03;;;-4.75;100.00
62655;BME280;48717;55.556;37.816;2023-03-04T01:18:41;97725.81;;;-4.78;100.00
62655;BME280;48717;55.556;37.816;2023-03-04T01:21:08;97707.00;;;-4.77;100.00
62655;BME280;48717;55.556;37.816;2023-03-04T01:23:35;97680.00;;;-4.94;100.00
62655;BME280;48717;55.556;37.816;2023-03-04T01:26:02;97713.78;;;-4.79;100.00
62655;BME280;48717;55.556;37.816;2023-03-04T01:28:29;97718.03;;;-4.81;100.00
62655;BME280;48717;55.556;37.816;2023-03-04T01:31:02;97700.03;;;-4.81;100.00
62655;BME280;48717;55.556;37.816;2023-03-04T01:33:30;97695.66;;;-4.85;100.00
62655;BME280;48717;55.556;37.816;2023-03-04T01:35:57;97666.13;;;-5.00;100.00
62655;BME280;48717;55.556;37.816;2023-03-04T01:38:25;97704.16;;;-4.86;100.00
62655;BME280;48717;55.556;37.816;2023-03-04T01:40:52;97700.03;;;-4.81;100.00
62655;BME280;48717;55.556;37.816;2023-03-04T01:43:23;97709.50;;;-4.80;100.00
62655;BME280;48717;55.556;37.816;2023-03-04T01:45:51;97687.84;;;-4.88;100.00
62655;BME280;48717;55.556;37.816;2023-03-04T01:48:31;97699.34;;;-4.74;100.00
62655;BME280;48717;55.556;37.816;2023-03-04T01:50:59;97676.91;;;-4.81;100.00
62655;BME280;48717;55.556;37.816;2023-03-04T01:53:31;97690.88;;;-4.69;100.00
62655;BME280;48717;55.556;37.816;2023-03-04T01:56:21;97672.69;;;-4.77;100.00
62655;BME280;48717;55.556;37.816;2023-03-04T01:59:09;97689.28;;;-4.64;100.00
62655;BME280;48717;55.556;37.816;2023-03-04T02:01:38;97676.44;;;-4.66;100.00
62655;BME280;48717;55.556;37.816;2023-03-04T02:04:06;97688.53;;;-4.60;100.00
62655;BME280;48717;55.556;37.816;2023-03-04T02:06:36;97660.03;;;-4.69;100.00
62655;BME280;48717;55.556;37.816;2023-03-04T02:09:05;97678.44;;;-4.54;100.00
62655;BME280;48717;55.556;37.816;2023-03-04T02:11:33;97657.88;;;-4.52;100.00
62655;BME280;48717;55.556;37.816;2023-03-04T02:14:02;97685.44;;;-4.47;100.00
62655;BME280;48717;55.556;37.816;2023-03-04T02:16:30;97679.47;;;-4.46;100.00
62655;BME280;48717;55.556;37.816;2023-03-04T02:18:57;97651.94;;;-4.50;100.00
62655;BME280;48717;55.556;37.816;2023-03-04T02:21:33;97657.31;;;-4.40;100.00
62655;BME280;48717;55.556;37.816;2023-03-04T02:26:33;97644.41;;;-4.42;100.00
62655;BME280;48717;55.556;37.816;2023-03-04T02:29:02;97634.81;;;-4.48;100.00
62655;BME280;48717;55.556;37.816;2023-03-04T02:31:37;97650.47;;;-4.38;100.00
62655;BME280;48717;55.556;37.816;2023-03-04T02:34:17;97631.38;;;-4.50;100.00
62655;BME280;48717;55.556;37.816;2023-03-04T02:36:46;97583.72;;;-4.70;100.00
62655;BME280;48717;55.556;37.816;2023-03-04T02:39:27;97625.50;;;-4.42;100.00
62655;BME280;48717;55.556;37.816;2023-03-04T02:41:55;97632.59;;;-4.34;100.00
62655;BME280;48717;55.556;37.816;2023-03-04T02:44:28;97629.25;;;-4.29;100.00
62655;BME280;48717;55.556;37.816;2023-03-04T02:46:57;97625.88;;;-4.27;100.00
62655;BME280;48717;55.556;37.816;2023-03-04T02:49:27;97592.06;;;-4.42;100.00
62655;BME280;48717;55.556;37.816;2023-03-04T02:52:09;97620.78;;;-4.24;100.00
62655;BME280;48717;55.556;37.816;2023-03-04T02:54:39;97605.34;;;-4.24;100.00
62655;BME280;48717;55.556;37.816;2023-03-04T02:57:08;97578.81;;;-4.21;100.00
62655;BME280;48717;55.556;37.816;2023-03-04T02:59:39;97589.91;;;-4.24;100.00
62655;BME280;48717;55.556;37.816;2023-03-04T03:02:09;97559.59;;;-4.37;100.00
62655;BME280;48717;55.556;37.816;2023-03-04T03:04:38;97572.63;;;-4.29;100.00
62655;BME280;48717;55.556;37.816;2023-03-04T03:07:08;97590.94;;;-4.15;100.00
62655;BME280;48717;55.556;37.816;2023-03-04T03:09:36;97593.59;;;-4.12;100.00
62655;BME280;48717;55.556;37.816;2023-03-04T03:12:03;97580.63;;;-4.15;100.00
62655;BME280;48717;55.556;37.816;2023-03-04T03:14:32;97579.09;;;-4.07;100.00
62655;BME280;48717;55.556;37.816;2023-03-04T03:16:59;97534.00;;;-4.31;100.00
62655;BME280;48717;55.556;37.816;2023-03-04T03:19:27;97563.81;;;-4.01;100.00
62655;BME280;48717;55.556;37.816;2023-03-04T03:21:55;97564.69;;;-3.99;100.00
62655;BME280;48717;55.556;37.816;2023-03-04T03:24:24;97553.41;;;-4.06;100.00
62655;BME280;48717;55.556;37.816;2023-03-04T03:26:51;97564.78;;;-3.94;100.00
62655;BME280;48717;55.556;37.816;2023-03-04T03:29:19;97561.41;;;-3.91;100.00
62655;BME280;48717;55.556;37.816;2023-03-04T03:31:46;97551.63;;;-4.08;100.00
62655;BME280;48717;55.556;37.816;2023-03-04T03:34:13;97573.41;;;-3.92;100.00
62655;BME280;48717;55.556;37.816;2023-03-04T03:36:40;97561.44;;;-3.88;100.00
62655;BME280;48717;55.556;37.816;2023-03-04T03:39:07;97550.34;;;-3.87;100.00
62655;BME280;48717;55.556;37.816;2023-03-04T03:41:34;97548.53;;;-3.91;100.00
62655;BME280;48717;55.556;37.816;2023-03-04T03:44:01;97547.72;;;-3.89;100.00
62655;BME280;48717;55.556;37.816;2023-03-04T03:46:28;97547.75;;;-3.87;100.00
62655;BME280;48717;55.556;37.816;2023-03-04T03:48:55;97548.66;;;-3.85;100.00
62655;BME280;48717;55.556;37.816;2023-03-04T03:51:22;97541.75;;;-3.86;100.00
62655;BME280;48717;55.556;37.816;2023-03-04T03:53:49;97499.34;;;-4.06;100.00
62655;BME280;48717;55.556;37.816;2023-03-04T03:56:16;97503.75;;;-4.00;100.00
62655;BME280;48717;55.556;37.816;2023-03-04T03:58:44;97509.91;;;-3.91;100.00
62655;BME280;48717;55.556;37.816;2023-03-04T04:01:10;97516.13;;;-3.80;100.00
62655;BME280;48717;55.556;37.816;2023-03-04T04:03:37;97513.66;;;-3.75;100.00
62655;BME280;48717;55.556;37.816;2023-03-04T04:06:05;97511.94;;;-3.73;100.00
62655;BME280;48717;55.556;37.816;2023-03-04T04:08:32;97501.59;;;-3.78;100.00
62655;BME280;48717;55.556;37.816;2023-03-04T04:11:01;97514.53;;;-3.73;100.00
62655;BME280;48717;55.556;37.816;2023-03-04T04:13:28;97515.41;;;-3.73;100.00
62655;BME280;48717;55.556;37.816;2023-03-04T04:15:55;97507.63;;;-3.76;100.00
62655;BME280;48717;55.556;37.816;2023-03-04T04:18:22;97503.22;;;-3.83;100.00
62655;BME280;48717;55.556;37.816;2023-03-04T04:20:51;97483.41;;;-3.84;100.00
62655;BME280;48717;55.556;37.816;2023-03-04T04:23:19;97501.66;;;-3.75;100.00
62655;BME280;48717;55.556;37.816;2023-03-04T04:25:46;97466.09;;;-3.93;100.00
62655;BME280;48717;55.556;37.816;2023-03-04T04:28:13;97495.66;;;-3.74;100.00
62655;BME280;48717;55.556;37.816;2023-03-04T04:30:40;97487.06;;;-3.73;100.00
62655;BME280;48717;55.556;37.816;2023-03-04T04:33:08;97470.75;;;-3.75;100.00
62655;BME280;48717;55.556;37.816;2023-03-04T04:35:36;97490.59;;;-3.68;100.00
62655;BME280;48717;55.556;37.816;2023-03-04T04:38:05;97472.34;;;-3.80;100.00
62655;BME280;48717;55.556;37.816;2023-03-04T04:40:32;97481.06;;;-3.72;100.00
62655;BME280;48717;55.556;37.816;2023-03-04T04:42:59;97488.09;;;-3.64;100.00
62655;BME280;48717;55.556;37.816;2023-03-04T04:45:26;97482.94;;;-3.64;100.00
62655;BME280;48717;55.556;37.816;2023-03-04T04:47:54;97482.19;;;-3.57;100.00
62655;BME280;48717;55.556;37.816;2023-03-04T04:50:24;97451.78;;;-3.78;100.00
62655;BME280;48717;55.556;37.816;2023-03-04T04:52:51;97444.03;;;-3.78;100.00
62655;BME280;48717;55.556;37.816;2023-03-04T04:55:18;97459.44;;;-3.83;100.00
62655;BME280;48717;55.556;37.816;2023-03-04T04:57:46;97498.56;;;-3.55;100.00
62655;BME280;48717;55.556;37.816;2023-03-04T05:00:13;97471.78;;;-3.63;100.00
62655;BME280;48717;55.556;37.816;2023-03-04T05:02:40;97488.97;;;-3.62;100.00
62655;BME280;48717;55.556;37.816;2023-03-04T05:05:07;97447.66;;;-3.69;100.00
62655;BME280;48717;55.556;37.816;2023-03-04T05:07:35;97497.03;;;-3.42;100.00
62655;BME280;48717;55.556;37.816;2023-03-04T05:10:03;97490.28;;;-3.37;100.00
62655;BME280;48717;55.556;37.816;2023-03-04T05:12:30;97487.78;;;-3.32;100.00
62655;BME280;48717;55.556;37.816;2023-03-04T05:14:57;97488.72;;;-3.27;100.00
62655;BME280;48717;55.556;37.816;2023-03-04T05:17:24;97483.56;;;-3.25;100.00
62655;BME280;48717;55.556;37.816;2023-03-04T05:19:51;97455.03;;;-3.38;100.00
62655;BME280;48717;55.556;37.816;2023-03-04T05:22:18;97478.50;;;-3.21;100.00
62655;BME280;48717;55.556;37.816;2023-03-04T05:24:45;97458.66;;;-3.26;100.00
62655;BME280;48717;55.556;37.816;2023-03-04T05:27:12;97446.78;;;-3.17;100.00
62655;BME280;48717;55.556;37.816;2023-03-04T05:29:39;97481.56;;;-2.90;99.95
62655;BME280;48717;55.556;37.816;2023-03-04T05:32:08;97465.19;;;-2.92;100.00
62655;BME280;48717;55.556;37.816;2023-03-04T05:34:35;97469.69;;;-2.77;98.54
62655;BME280;48717;55.556;37.816;2023-03-04T05:37:02;97483.53;;;-2.71;98.19
62655;BME280;48717;55.556;37.816;2023-03-04T05:39:29;97470.59;;;-2.76;98.13
62655;BME280;48717;55.556;37.816;2023-03-04T05:41:56;97465.44;;;-2.73;97.73
62655;BME280;48717;55.556;37.816;2023-03-04T05:44:23;97445.66;;;-2.74;97.59
62655;BME280;48717;55.556;37.816;2023-03-04T05:46:50;97444.09;;;-2.63;97.08
62655;BME280;48717;55.556;37.816;2023-03-04T05:49:18;97457.16;;;-2.49;96.06
62655;BME280;48717;55.556;37.816;2023-03-04T05:51:48;97448.63;;;-2.43;95.43
62655;BME280;48717;55.556;37.816;2023-03-04T05:54:16;97445.38;;;-2.28;95.21
62655;BME280;48717;55.556;37.816;2023-03-04T05:56:53;97417.09;;;-2.17;94.21
62655;BME280;48717;55.556;37.816;2023-03-04T05:59:20;97452.59;;;-2.00;93.14
62655;BME280;48717;55.556;37.816;2023-03-04T06:01:47;97427.44;;;-2.17;92.83
62655;BME280;48717;55.556;37.816;2023-03-04T06:04:15;97441.34;;;-2.02;92.44
62655;BME280;48717;55.556;37.816;2023-03-04T06:06:42;97402.34;;;-2.29;92.45
62655;BME280;48717;55.556;37.816;2023-03-04T06:09:09;97442.16;;;-2.10;92.15
62655;BME280;48717;55.556;37.816;2023-03-04T06:11:36;97445.59;;;-2.09;92.41
62655;BME280;48717;55.556;37.816;2023-03-04T06:14:04;97434.31;;;-2.19;92.13
62655;BME280;48717;55.556;37.816;2023-03-04T06:16:34;97444.66;;;-2.19;92.61
62655;BME280;48717;55.556;37.816;2023-03-04T06:19:01;97419.50;;;-2.34;92.90
62655;BME280;48717;55.556;37.816;2023-03-04T06:21:29;97430.84;;;-2.21;92.87
62655;BME280;48717;55.556;37.816;2023-03-04T06:23:56;97419.50;;;-2.34;92.33
62655;BME280;48717;55.556;37.816;2023-03-04T06:26:22;97426.41;;;-2.31;92.10
62655;BME280;48717;55.556;37.816;2023-03-04T06:28:50;97417.00;;;-2.26;92.02
62655;BME280;48717;55.556;37.816;2023-03-04T06:31:17;97436.09;;;-2.12;91.83
62655;BME280;48717;55.556;37.816;2023-03-04T06:33:44;97406.72;;;-2.23;91.01
62655;BME280;48717;55.556;37.816;2023-03-04T06:36:12;97435.31;;;-2.04;90.57
62655;BME280;48717;55.556;37.816;2023-03-04T06:38:39;97416.25;;;-2.17;90.79
62655;BME280;48717;55.556;37.816;2023-03-04T06:41:10;97419.78;;;-2.07;90.12
62655;BME280;48717;55.556;37.816;2023-03-04T06:43:38;97431.94;;;-1.99;89.74
62655;BME280;48717;55.556;37.816;2023-03-04T06:46:06;97398.19;;;-2.16;90.03
62655;BME280;48717;55.556;37.816;2023-03-04T06:48:36;97411.19;;;-2.10;89.56
62655;BME280;48717;55.556;37.816;2023-03-04T06:51:13;97419.94;;;-1.93;89.09
62655;BME280;48717;55.556;37.816;2023-03-04T06:53:41;97405.53;;;-1.68;88.48
62655;BME280;48717;55.556;37.816;2023-03-04T06:56:10;97411.78;;;-1.46;86.28
62655;BME280;48717;55.556;37.816;2023-03-04T06:58:38;97400.69;;;-1.30;85.18
62655;BME280;48717;55.556;37.816;2023-03-04T07:01:12;97425.00;;;-1.03;83.34
62655;BME280;48717;55.556;37.816;2023-03-04T07:03:39;97397.38;;;-1.05;83.54
62655;BME280;48717;55.556;37.816;2023-03-04T07:06:12;97410.34;;;-1.06;82.97
62655;BME280;48717;55.556;37.816;2023-03-04T07:08:40;97411.94;;;-1.21;84.09
62655;BME280;48717;55.556;37.816;2023-03-04T07:11:08;97302.06;;;-1.84;83.57
62655;BME280;48717;55.556;37.816;2023-03-04T07:13:39;97295.97;;;-1.92;83.51
62655;BME280;48717;55.556;37.816;2023-03-04T07:16:08;97392.06;;;-1.29;84.79
62655;BME280;48717;55.556;37.816;2023-03-04T07:18:36;97380.03;;;-1.24;84.81
62655;BME280;48717;55.556;37.816;2023-03-04T07:21:04;97354.13;;;-1.34;85.54
62655;BME280;48717;55.556;37.816;2023-03-04T07:23:33;97356.06;;;-0.98;86.06
62655;BME280;48717;55.556;37.816;2023-03-04T07:26:00;97322.41;;;-1.06;85.28
62655;BME280;48717;55.556;37.816;2023-03-04T07:28:27;97354.44;;;-0.74;83.33
62655;BME280;48717;55.556;37.816;2023-03-04T07:30:54;97358.72;;;-0.86;83.91
62655;BME280;48717;55.556;37.816;2023-03-04T07:33:22;97357.84;;;-0.85;85.42
62655;BME280;48717;55.556;37.816;2023-03-04T07:35:57;97330.16;;;-1.01;86.31
62655;BME280;48717;55.556;37.816;2023-03-04T07:38:25;97343.19;;;-0.84;84.79
62655;BME280;48717;55.556;37.816;2023-03-04T07:40:58;97344.22;;;-0.37;85.67
62655;BME280;48717;55.556;37.816;2023-03-04T07:43:26;97352.00;;;-0.31;83.30
62655;BME280;48717;55.556;37.816;2023-03-04T07:45:58;97317.41;;;-0.56;84.59
62655;BME280;48717;55.556;37.816;2023-03-04T07:48:25;97268.91;;;-1.12;82.14
62655;BME280;48717;55.556;37.816;2023-03-04T07:51:11;97343.28;;;-0.51;83.95
62655;BME280;48717;55.556;37.816;2023-03-04T07:53:41;97333.81;;;-0.51;84.25
62655;BME280;48717;55.556;37.816;2023-03-04T07:56:15;97315.63;;;-0.71;83.71
62655;BME280;48717;55.556;37.816;2023-03-04T07:58:42;97327.72;;;-0.62;84.09
62655;BME280;48717;55.556;37.816;2023-03-04T08:01:16;97311.31;;;-0.74;82.00
62655;BME280;48717;55.556;37.816;2023-03-04T08:03:44;97304.31;;;-0.92;81.64
62655;BME280;48717;55.556;37.816;2023-03-04T08:06:13;97295.66;;;-1.00;83.11
62655;BME280;48717;55.556;37.816;2023-03-04T08:08:41;97313.78;;;-0.99;83.10
62655;BME280;48717;55.556;37.816;2023-03-04T08:11:17;97318.94;;;-1.00;85.51
62655;BME280;48717;55.556;37.816;2023-03-04T08:13:45;97302.50;;;-1.16;87.51
62655;BME280;48717;55.556;37.816;2023-03-04T08:16:14;97281.69;;;-1.43;87.88
62655;BME280;48717;55.556;37.816;2023-03-04T08:18:42;97309.38;;;-1.20;88.64
62655;BME280;48717;55.556;37.816;2023-03-04T08:21:11;97306.84;;;-1.11;89.79
62655;BME280;48717;55.556;37.816;2023-03-04T08:23:39;97280.13;;;-1.13;88.98
62655;BME280;48717;55.556;37.816;2023-03-04T08:26:15;97302.63;;;-0.90;88.42
62655;BME280;48717;55.556;37.816;2023-03-04T08:28:53;97306.97;;;-0.80;88.56
62655;BME280;48717;55.556;37.816;2023-03-04T08:31:28;97283.75;;;-0.64;89.69
62655;BME280;48717;55.556;37.816;2023-03-04T08:33:55;97276.84;;;-0.68;87.11
62655;BME280;48717;55.556;37.816;2023-03-04T08:36:22;97289.81;;;-0.59;85.53
62655;BME280;48717;55.556;37.816;2023-03-04T08:38:49;97262.16;;;-0.72;86.52
62655;BME280;48717;55.556;37.816;2023-03-04T08:41:16;97284.59;;;-0.56;85.60
62655;BME280;48717;55.556;37.816;2023-03-04T08:43:44;97276.84;;;-0.59;83.93
62655;BME280;48717;55.556;37.816;2023-03-04T08:46:10;97275.06;;;-0.69;83.17
62655;BME280;48717;55.556;37.816;2023-03-04T08:48:38;97266.47;;;-0.71;82.67
62655;BME280;48717;55.556;37.816;2023-03-04T08:51:10;97270.78;;;-0.70;82.09
62655;BME280;48717;55.556;37.816;2023-03-04T08:53:38;97255.22;;;-0.81;82.95
62655;BME280;48717;55.556;37.816;2023-03-04T08:56:06;97264.72;;;-0.69;82.97
62655;BME280;48717;55.556;37.816;2023-03-04T08:58:34;97243.19;;;-0.62;81.77
62655;BME280;48717;55.556;37.816;2023-03-04T09:01:02;97263.94;;;-0.46;81.38
62655;BME280;48717;55.556;37.816;2023-03-04T09:03:29;97246.69;;;-0.41;82.02
62655;BME280;48717;55.556;37.816;2023-03-04T09:05:56;97212.16;;;-0.40;81.32
62655;BME280;48717;55.556;37.816;2023-03-04T09:08:23;97234.59;;;-0.20;82.04
62655;BME280;48717;55.556;37.816;2023-03-04T09:10:52;97214.75;;;-0.31;79.65
62655;BME280;48717;55.556;37.816;2023-03-04T09:13:22;97238.94;;;0.01;79.63
62655;BME280;48717;55.556;37.816;2023-03-04T09:15:52;97235.47;;;0.13;79.61
62655;BME280;48717;55.556;37.816;2023-03-04T09:18:21;97206.09;;;0.20;79.87
62655;BME280;48717;55.556;37.816;2023-03-04T09:20:49;97232.81;;;0.57;77.04
62655;BME280;48717;55.556;37.816;2023-03-04T09:23:17;97194.72;;;0.73;76.36
62655;BME280;48717;55.556;37.816;2023-03-04T09:25:45;97186.00;;;0.82;74.20
62655;BME280;48717;55.556;37.816;2023-03-04T09:28:13;97219.81;;;0.69;73.51
62655;BME280;48717;55.556;37.816;2023-03-04T09:30:41;97202.56;;;0.52;74.96
62655;BME280;48717;55.556;37.816;2023-03-04T09:33:09;97167.19;;;0.22;75.43
62655;BME280;48717;55.556;37.816;2023-03-04T09:35:36;97168.09;;;0.10;75.55
62655;BME280;48717;55.556;37.816;2023-03-04T09:38:04;97187.94;;;0.23;75.78
62655;BME280;48717;55.556;37.816;2023-03-04T09:43:06;97162.94;;;0.04;75.36
62655;BME280;48717;55.556;37.816;2023-03-04T09:45:41;97171.53;;;0.15;75.97
62655;BME280;48717;55.556;37.816;2023-03-04T09:48:13;97148.22;;;0.10;76.12
62655;BME280;48717;55.556;37.816;2023-03-04T09:51:13;97156.00;;;0.06;75.16
62655;BME280;48717;55.556;37.816;2023-03-04T09:53:54;97149.09;;;0.06;75.71
62655;BME280;48717;55.556;37.816;2023-03-04T09:56:24;97167.25;;;0.02;75.24
62655;BME280;48717;55.556;37.816;2023-03-04T10:07:00;97096.47;;;-0.10;73.83
62655;BME280;48717;55.556;37.816;2023-03-04T10:09:37;97146.41;;;0.44;73.55
62655;BME280;48717;55.556;37.816;2023-03-04T10:12:12;97116.06;;;0.61;71.95
62655;BME280;48717;55.556;37.816;2023-03-04T10:15:00;97123.69;;;0.96;71.33
62655;BME280;48717;55.556;37.816;2023-03-04T10:17:35;97123.63;;;1.05;70.08
62655;BME280;48717;55.556;37.816;2023-03-04T10:20:25;97119.25;;;1.09;68.12
62655;BME280;48717;55.556;37.816;2023-03-04T10:22:59;97105.47;;;1.03;69.66
62655;BME280;48717;55.556;37.816;2023-03-04T10:25:32;97099.44;;;0.95;70.07
62655;BME280;48717;55.556;37.816;2023-03-04T10:33:17;97108.28;;;0.61;71.11
62655;BME280;48717;55.556;37.816;2023-03-04T10:35:59;97092.75;;;0.60;71.42
62655;BME280;48717;55.556;37.816;2023-03-04T10:38:36;97068.56;;;0.58;72.47
62655;BME280;48717;55.556;37.816;2023-03-04T10:41:15;97092.69;;;0.71;72.90
62655;BME280;48717;55.556;37.816;2023-03-04T10:43:49;97084.09;;;0.62;74.17
62655;BME280;48717;55.556;37.816;2023-03-04T10:46:16;97079.03;;;0.33;76.61
62655;BME280;48717;55.556;37.816;2023-03-04T10:48:44;97073.06;;;0.21;78.96
62655;BME280;48717;55.556;37.816;2023-03-04T10:51:28;97060.13;;;0.07;81.33
62655;BME280;48717;55.556;37.816;2023-03-04T10:54:09;97075.75;;;-0.13;83.87
62655;BME280;48717;55.556;37.816;2023-03-04T10:56:58;97060.22;;;-0.24;86.00
62655;BME280;48717;55.556;37.816;2023-03-04T11:02:25;97050.72;;;-0.11;86.32
62655;BME280;48717;55.556;37.816;2023-03-04T11:07:55;97040.19;;;0.22;84.92
62655;BME280;48717;55.556;37.816;2023-03-04T11:10:29;97037.66;;;0.16;84.42
62655;BME280;48717;55.556;37.816;2023-03-04T11:13:12;97046.25;;;0.18;83.73
62655;BME280;48717;55.556;37.816;2023-03-04T11:16:01;97037.69;;;0.02;84.76
62655;BME280;48717;55.556;37.816;2023-03-04T11:18:41;97036.84;;;-0.04;84.07
62655;BME280;48717;55.556;37.816;2023-03-04T11:21:21;97033.41;;;-0.06;84.53
62655;BME280;48717;55.556;37.816;2023-03-04T11:26:22;97023.13;;;-0.31;85.82
62655;BME280;48717;55.556;37.816;2023-03-04T11:29:01;96988.69;;;-0.58;88.39
62655;BME280;48717;55.556;37.816;2023-03-04T11:31:56;97012.81;;;-0.49;89.07
62655;BME280;48717;55.556;37.816;2023-03-04T11:34:39;97012.84;;;-0.62;90.29
62655;BME280;48717;55.556;37.816;2023-03-04T11:40:02;96999.03;;;-0.73;92.08
62655;BME280;48717;55.556;37.816;2023-03-04T11:42:46;97007.66;;;-0.63;92.86
62655;BME280;48717;55.556;37.816;2023-03-04T12:06:02;96973.19;;;-0.89;98.32
62655;BME280;48717;55.556;37.816;2023-03-04T12:11:08;96886.16;;;-1.27;100.00
62655;BME280;48717;55.556;37.816;2023-03-04T12:14:10;96943.03;;;-0.88;100.00
62655;BME280;48717;55.556;37.816;2023-03-04T12:16:55;96938.69;;;-0.85;99.74
62655;BME280;48717;55.556;37.816;2023-03-04T12:22:27;96932.66;;;-0.87;100.00
62655;BME280;48717;55.556;37.816;2023-03-04T12:35:46;96883.56;;;-1.06;100.00
62655;BME280;48717;55.556;37.816;2023-03-04T12:44:16;96888.72;;;-1.02;100.00
62655;BME280;48717;55.556;37.816;2023-03-04T12:49:58;96873.22;;;-1.06;100.00
62655;BME280;48717;55.556;37.816;2023-03-04T12:55:03;96877.47;;;-0.92;100.00
62655;BME280;48717;55.556;37.816;2023-03-04T12:57:34;96880.94;;;-0.92;100.00
62655;BME280;48717;55.556;37.816;2023-03-04T13:02:50;96886.16;;;-1.02;100.00
62655;BME280;48717;55.556;37.816;2023-03-04T13:05:41;96873.22;;;-0.99;100.00
62655;BME280;48717;55.556;37.816;2023-03-04T13:08:47;96852.53;;;-1.06;100.00
62655;BME280;48717;55.556;37.816;2023-03-04T13:19:00;96852.50;;;-0.95;100.00
62655;BME280;48717;55.556;37.816;2023-03-04T13:21:31;96832.66;;;-0.97;100.00
62655;BME280;48717;55.556;37.816;2023-03-04T13:24:45;96841.31;;;-0.97;100.00
62655;BME280;48717;55.556;37.816;2023-03-04T13:41:23;96811.13;;;-1.02;100.00
62655;BME280;48717;55.556;37.816;2023-03-04T13:43:58;96802.53;;;-1.08;100.00
62655;BME280;48717;55.556;37.816;2023-03-04T13:51:41;96797.31;;;-0.98;100.00
62655;BME280;48717;55.556;37.816;2023-03-04T13:59:32;96776.66;;;-1.01;100.00
62655;BME280;48717;55.556;37.816;2023-03-04T14:02:10;96785.28;;;-1.02;100.00
62655;BME280;48717;55.556;37.816;2023-03-04T14:04:40;96748.31;;;-1.29;100.00
62655;BME280;48717;55.556;37.816;2023-03-04T14:07:35;96774.09;;;-1.11;100.00
62655;BME280;48717;55.556;37.816;2023-03-04T14:15:40;96763.75;;;-1.11;100.00
62655;BME280;48717;55.556;37.816;2023-03-04T14:18:10;96766.34;;;-1.14;100.00
62655;BME280;48717;55.556;37.816;2023-03-04T14:20:47;96750.03;;;-1.30;100.00
62655;BME280;48717;55.556;37.816;2023-03-04T14:23:28;96737.97;;;-1.26;100.00
62655;BME280;48717;55.556;37.816;2023-03-04T14:26:14;96710.44;;;-1.41;100.00
62655;BME280;48717;55.556;37.816;2023-03-04T14:28:47;96714.69;;;-1.36;100.00
62655;BME280;48717;55.556;37.816;2023-03-04T14:31:19;96726.75;;;-1.32;100.00
62655;BME280;48717;55.556;37.816;2023-03-04T14:33:51;96738.78;;;-1.18;100.00
62655;BME280;48717;55.556;37.816;2023-03-04T14:36:21;96721.63;;;-1.35;100.00
62655;BME280;48717;55.556;37.816;2023-03-04T14:38:54;96737.97;;;-1.28;100.00
62655;BME280;48717;55.556;37.816;2023-03-04T14:41:32;96694.09;;;-1.51;100.00
62655;BME280;48717;55.556;37.816;2023-03-04T14:46:49;96692.34;;;-1.45;100.00
62655;BME280;48717;55.556;37.816;2023-03-04T14:49:34;96705.25;;;-1.40;100.00
62655;BME280;48717;55.556;37.816;2023-03-04T14:52:03;96716.41;;;-1.32;100.00
62655;BME280;48717;55.556;37.816;2023-03-04T14:54:40;96715.56;;;-1.37;100.00
62655;BME280;48717;55.556;37.816;2023-03-04T14:57:34;96719.88;;;-1.34;100.00
62655;BME280;48717;55.556;37.816;2023-03-04T15:00:25;96686.34;;;-1.53;100.00
62655;BME280;48717;55.556;37.816;2023-03-04T15:03:23;96714.75;;;-1.40;100.00
62655;BME280;48717;55.556;37.816;2023-03-04T15:05:54;96703.56;;;-1.44;100.00